createdAt,value
2018-12-21T00:01:36.642Z,4.30
2018-12-21T00:04:04.853Z,5.00
2018-12-21T00:06:32.929Z,4.70
2018-12-21T00:09:01.022Z,4.13
2018-12-21T00:11:29.103Z,3.70
2018-12-21T00:13:57.183Z,4.20
2018-12-21T00:16:25.229Z,3.73
2018-12-21T00:18:53.315Z,3.80
2018-12-21T00:21:21.901Z,4.10
2018-12-21T00:23:50.305Z,4.27
2018-12-21T00:26:18.387Z,4.10
2018-12-21T00:28:46.482Z,4.43
2018-12-21T00:31:20.419Z,4.70
2018-12-21T00:33:54.202Z,4.23
2018-12-21T00:36:28.078Z,4.37
2018-12-21T00:39:01.974Z,3.37
2018-12-21T00:41:29.630Z,4.23
2018-12-21T00:43:59.675Z,4.73
2018-12-21T00:46:29.855Z,4.00
2018-12-21T00:48:57.926Z,4.50
2018-12-21T00:51:30.224Z,3.70
2018-12-21T00:53:56.039Z,3.90
2018-12-21T00:56:24.139Z,3.30
2018-12-21T00:58:52.173Z,3.37
2018-12-21T01:01:20.605Z,6.50
2018-12-21T01:03:48.715Z,14.17
2018-12-21T01:06:16.786Z,12.07
2018-12-21T01:08:44.938Z,13.87
2018-12-21T01:11:13.078Z,9.30
2018-12-21T01:13:41.136Z,7.30
2018-12-21T01:16:09.259Z,5.97
2018-12-21T01:18:37.330Z,5.03
2018-12-21T01:21:07.047Z,5.17
2018-12-21T01:23:35.169Z,4.00
2018-12-21T01:26:03.246Z,4.03
2018-12-21T01:28:31.343Z,4.30
2018-12-21T01:30:59.490Z,5.67
2018-12-21T01:33:27.590Z,4.50
2018-12-21T01:35:55.650Z,4.13
2018-12-21T01:38:23.760Z,4.10
2018-12-21T01:40:51.801Z,3.67
2018-12-21T01:43:19.875Z,3.80
2018-12-21T01:45:47.940Z,3.70
2018-12-21T01:48:16.005Z,3.30
2018-12-21T01:50:44.114Z,2.40
2018-12-21T01:53:12.234Z,3.63
2018-12-21T01:55:40.300Z,3.47
2018-12-21T01:58:08.370Z,3.00
2018-12-21T02:00:36.544Z,3.40
2018-12-21T02:03:04.669Z,3.43
2018-12-21T02:05:32.763Z,2.90
2018-12-21T02:08:00.834Z,2.40
2018-12-21T02:10:28.897Z,3.50
2018-12-21T02:12:56.953Z,2.83
2018-12-21T02:15:25.022Z,2.57
2018-12-21T02:17:53.106Z,2.40
2018-12-21T02:20:21.243Z,2.87
2018-12-21T02:22:49.297Z,2.03
2018-12-21T02:25:17.472Z,2.97
2018-12-21T02:27:45.549Z,2.73
2018-12-21T02:30:13.633Z,2.63
2018-12-21T02:32:41.823Z,2.43
2018-12-21T02:35:09.958Z,2.77
2018-12-21T02:37:38.031Z,3.77
2018-12-21T02:40:06.834Z,2.60
2018-12-21T02:42:35.454Z,2.53
2018-12-21T02:45:04.727Z,2.13
2018-12-21T02:47:32.786Z,2.30
2018-12-21T02:50:00.899Z,2.30
2018-12-21T02:52:28.950Z,2.50
2018-12-21T02:54:58.011Z,1.80
2018-12-21T02:57:26.091Z,1.87
2018-12-21T02:59:54.165Z,2.20
2018-12-21T03:02:22.226Z,1.80
2018-12-21T03:04:50.307Z,2.57
2018-12-21T03:07:18.396Z,2.27
2018-12-21T03:09:46.498Z,2.37
2018-12-21T03:12:14.561Z,2.50
2018-12-21T03:14:42.622Z,2.23
2018-12-21T03:17:10.714Z,1.93
2018-12-21T03:19:38.776Z,1.83
2018-12-21T03:22:14.696Z,2.63
2018-12-21T03:24:36.877Z,2.67
2018-12-21T03:27:04.978Z,2.20
2018-12-21T03:29:33.115Z,2.13
2018-12-21T03:32:01.275Z,2.20
2018-12-21T03:34:29.385Z,2.50
2018-12-21T03:36:57.434Z,1.73
2018-12-21T03:39:25.608Z,2.30
2018-12-21T03:41:53.740Z,2.40
2018-12-21T03:44:21.824Z,1.63
2018-12-21T03:46:49.959Z,1.80
2018-12-21T03:49:18.029Z,2.30
2018-12-21T03:51:46.117Z,2.00
2018-12-21T03:54:14.274Z,1.73
2018-12-21T03:56:42.329Z,2.00
2018-12-21T03:59:10.425Z,2.20
2018-12-21T04:01:38.581Z,2.13
2018-12-21T04:04:06.665Z,1.80
2018-12-21T04:06:34.747Z,2.60
2018-12-21T04:09:03.982Z,2.23
2018-12-21T04:11:32.050Z,2.00
2018-12-21T04:14:00.095Z,2.40
2018-12-21T04:16:28.161Z,2.13
2018-12-21T04:18:56.267Z,2.10
2018-12-21T04:21:24.329Z,2.50
2018-12-21T04:23:52.405Z,2.10
2018-12-21T04:26:20.476Z,2.10
2018-12-21T04:28:48.601Z,2.30
2018-12-21T04:31:16.690Z,1.70
2018-12-21T04:33:44.747Z,1.70
2018-12-21T04:36:12.863Z,1.90
2018-12-21T04:38:42.521Z,1.93
2018-12-21T04:41:10.577Z,1.90
2018-12-21T04:43:38.643Z,1.93
2018-12-21T04:46:06.724Z,1.50
2018-12-21T04:48:34.822Z,1.67
2018-12-21T04:51:02.883Z,1.70
2018-12-21T04:53:30.964Z,1.60
2018-12-21T04:55:59.046Z,1.60
2018-12-21T04:58:27.135Z,1.37
2018-12-21T05:00:55.212Z,1.83
2018-12-21T05:03:23.311Z,1.40
2018-12-21T05:05:51.396Z,1.87
2018-12-21T05:08:19.465Z,1.60
2018-12-21T05:10:47.542Z,2.07
2018-12-21T05:13:15.606Z,1.63
2018-12-21T05:15:43.766Z,1.90
2018-12-21T05:18:11.933Z,2.07
2018-12-21T05:20:39.982Z,1.77
2018-12-21T05:23:08.064Z,1.80
2018-12-21T05:25:36.124Z,1.80
2018-12-21T05:28:04.776Z,2.13
2018-12-21T05:30:33.377Z,1.73
2018-12-21T05:33:01.486Z,2.00
2018-12-21T05:35:29.545Z,1.90
2018-12-21T05:37:57.640Z,2.90
2018-12-21T05:40:25.750Z,1.80
2018-12-21T05:42:53.806Z,2.20
2018-12-21T05:45:21.858Z,1.80
2018-12-21T05:47:49.938Z,1.77
2018-12-21T05:50:18.018Z,1.93
2018-12-21T05:52:46.123Z,1.77
2018-12-21T05:55:14.218Z,1.80
2018-12-21T05:57:42.266Z,1.50
2018-12-21T06:00:10.497Z,1.30
2018-12-21T06:02:38.578Z,1.30
2018-12-21T06:05:06.786Z,1.33
2018-12-21T06:07:34.886Z,1.50
2018-12-21T06:10:03.402Z,1.37
2018-12-21T06:12:31.570Z,2.20
2018-12-21T06:14:59.582Z,1.40
2018-12-21T06:17:27.655Z,1.30
2018-12-21T06:19:55.726Z,1.10
2018-12-21T06:22:23.902Z,1.40
2018-12-21T06:24:51.944Z,1.13
2018-12-21T06:27:20.018Z,1.50
2018-12-21T06:29:48.261Z,1.47
2018-12-21T06:32:16.325Z,1.33
2018-12-21T06:34:44.409Z,1.23
2018-12-21T06:37:12.480Z,1.27
2018-12-21T06:39:40.641Z,1.30
2018-12-21T06:42:08.719Z,1.17
2018-12-21T06:44:36.799Z,1.33
2018-12-21T06:47:04.843Z,0.90
2018-12-21T06:49:32.939Z,1.30
2018-12-21T06:52:00.991Z,1.03
2018-12-21T06:54:29.206Z,1.20
2018-12-21T06:56:57.276Z,1.00
2018-12-21T06:59:25.351Z,0.90
2018-12-21T07:01:53.410Z,1.20
2018-12-21T07:04:21.504Z,1.00
2018-12-21T07:06:49.594Z,0.80
2018-12-21T07:09:17.666Z,1.20
2018-12-21T07:11:45.882Z,0.80
2018-12-21T07:14:13.962Z,0.77
2018-12-21T07:16:42.035Z,0.80
2018-12-21T07:19:10.164Z,0.90
2018-12-21T07:21:38.969Z,0.70
2018-12-21T07:24:07.038Z,0.90
2018-12-21T07:26:35.123Z,0.90
2018-12-21T07:29:03.218Z,2.00
2018-12-21T07:31:31.290Z,1.83
2018-12-21T07:33:59.391Z,0.77
2018-12-21T07:36:27.441Z,0.70
2018-12-21T07:38:55.540Z,0.60
2018-12-21T07:41:23.628Z,0.80
2018-12-21T07:43:51.678Z,1.00
2018-12-21T07:46:20.458Z,0.80
2018-12-21T07:48:48.587Z,0.80
2018-12-21T07:51:16.657Z,0.80
2018-12-21T07:53:44.742Z,0.77
2018-12-21T07:56:12.818Z,0.67
2018-12-21T07:58:40.931Z,0.60
2018-12-21T08:01:08.996Z,0.80
2018-12-21T08:03:37.075Z,0.70
2018-12-21T08:06:05.950Z,0.70
2018-12-21T08:08:34.026Z,0.90
2018-12-21T08:11:02.162Z,0.90
2018-12-21T08:13:35.917Z,0.60
2018-12-21T08:16:04.114Z,1.00
2018-12-21T08:21:06.853Z,1.00
2018-12-21T08:23:34.939Z,1.30
2018-12-21T08:26:05.435Z,0.90
2018-12-21T08:28:33.489Z,0.93
2018-12-21T08:31:01.597Z,0.90
2018-12-21T08:33:29.781Z,0.80
2018-12-21T08:35:57.937Z,1.00
2018-12-21T08:38:26.034Z,0.90
2018-12-21T08:40:54.096Z,0.67
2018-12-21T08:43:22.241Z,0.70
2018-12-21T08:45:50.289Z,0.63
2018-12-21T08:48:18.393Z,0.80
2018-12-21T08:50:46.485Z,0.67
2018-12-21T08:53:14.569Z,0.73
2018-12-21T08:55:42.659Z,0.70
2018-12-21T08:58:10.847Z,0.60
2018-12-21T09:00:38.907Z,0.80
2018-12-21T09:03:07.941Z,0.80
2018-12-21T09:05:36.094Z,0.80
2018-12-21T09:08:04.937Z,1.00
2018-12-21T09:10:33.023Z,0.60
2018-12-21T09:13:01.086Z,0.67
2018-12-21T09:15:29.182Z,0.87
2018-12-21T09:17:57.253Z,0.73
2018-12-21T09:20:25.308Z,1.17
2018-12-21T09:22:54.395Z,0.80
2018-12-21T09:25:22.560Z,0.80
2018-12-21T09:27:51.433Z,0.60
2018-12-21T09:30:19.514Z,0.80
2018-12-21T09:32:47.618Z,0.70
2018-12-21T09:35:15.721Z,0.80
2018-12-21T09:37:43.815Z,0.70
2018-12-21T09:40:12.568Z,0.70
2018-12-21T09:42:40.662Z,0.80
2018-12-21T09:45:08.930Z,0.70
2018-12-21T09:47:37.058Z,0.80
2018-12-21T09:50:06.876Z,0.83
2018-12-21T09:52:34.951Z,0.70
2018-12-21T09:55:03.255Z,0.83
2018-12-21T09:57:31.944Z,0.67
2018-12-21T10:00:00.013Z,0.70
2018-12-21T10:02:35.522Z,0.70
2018-12-21T10:04:58.191Z,0.70
2018-12-21T10:07:27.707Z,0.80
2018-12-21T10:09:56.072Z,0.70
2018-12-21T10:12:24.134Z,0.60
2018-12-21T10:14:52.282Z,1.60
2018-12-21T10:17:20.322Z,1.00
2018-12-21T10:19:48.460Z,1.10
2018-12-21T10:22:16.522Z,0.60
2018-12-21T10:24:44.640Z,0.60
2018-12-21T10:27:12.703Z,0.77
2018-12-21T10:29:40.795Z,0.80
2018-12-21T10:32:08.909Z,1.50
2018-12-21T10:34:36.974Z,2.40
2018-12-21T10:37:05.091Z,1.10
2018-12-21T10:39:33.372Z,0.83
2018-12-21T10:42:02.383Z,0.83
2018-12-21T10:44:30.440Z,0.90
2018-12-21T10:46:58.551Z,0.70
2018-12-21T10:49:26.638Z,1.30
2018-12-21T10:51:54.735Z,1.00
2018-12-21T10:54:26.756Z,0.90
2018-12-21T10:56:52.899Z,0.90
2018-12-21T10:59:21.246Z,1.00
2018-12-21T11:01:49.450Z,0.90
2018-12-21T11:04:17.544Z,0.73
2018-12-21T11:06:45.711Z,1.10
2018-12-21T11:09:13.773Z,1.07
2018-12-21T11:11:41.862Z,1.00
2018-12-21T11:14:09.939Z,3.97
2018-12-21T11:16:38.049Z,3.30
2018-12-21T11:19:06.143Z,1.27
2018-12-21T11:21:34.205Z,1.00
2018-12-21T11:24:02.289Z,0.80
2018-12-21T11:26:30.394Z,2.07
2018-12-21T11:28:58.496Z,1.00
2018-12-21T11:31:26.576Z,4.03
2018-12-21T11:33:54.652Z,3.23
2018-12-21T11:36:22.761Z,1.20
2018-12-21T11:38:51.963Z,1.40
2018-12-21T11:41:20.063Z,2.40
2018-12-21T11:43:48.263Z,1.60
2018-12-21T11:46:16.305Z,1.60
2018-12-21T11:48:44.396Z,1.30
2018-12-21T11:51:12.506Z,1.63
2018-12-21T11:53:40.606Z,1.30
2018-12-21T11:56:08.710Z,2.10
2018-12-21T11:58:36.913Z,2.07
2018-12-21T12:01:05.019Z,1.60
2018-12-21T12:03:33.117Z,2.20
2018-12-21T12:06:01.201Z,2.10
2018-12-21T12:08:29.272Z,1.93
2018-12-21T12:10:57.379Z,2.10
2018-12-21T12:13:25.450Z,2.23
2018-12-21T12:15:53.567Z,2.00
2018-12-21T12:18:21.668Z,2.00
2018-12-21T12:20:49.726Z,1.80
2018-12-21T12:23:17.818Z,2.10
2018-12-21T12:25:45.876Z,2.50
2018-12-21T12:28:13.994Z,2.50
2018-12-21T12:30:42.094Z,2.27
2018-12-21T12:33:10.190Z,2.07
2018-12-21T12:35:38.266Z,2.20
2018-12-21T12:38:06.343Z,2.93
2018-12-21T12:40:34.431Z,2.13
2018-12-21T12:43:02.496Z,1.70
2018-12-21T12:45:30.602Z,2.17
2018-12-21T12:47:58.673Z,1.77
2018-12-21T12:50:26.813Z,1.70
2018-12-21T12:52:54.891Z,1.93
2018-12-21T12:55:22.962Z,1.60
2018-12-21T12:57:51.056Z,1.67
2018-12-21T13:00:19.246Z,1.50
2018-12-21T13:02:47.484Z,1.40
2018-12-21T13:05:15.565Z,1.27
2018-12-21T13:07:43.726Z,1.50
2018-12-21T13:10:11.821Z,1.30
2018-12-21T13:12:40.062Z,1.30
2018-12-21T13:15:08.731Z,1.20
2018-12-21T13:17:36.817Z,1.57
2018-12-21T13:20:08.512Z,1.40
2018-12-21T13:22:36.659Z,1.30
2018-12-21T13:25:11.311Z,1.10
2018-12-21T13:27:35.038Z,1.00
2018-12-21T13:30:05.546Z,1.00
2018-12-21T13:32:33.622Z,1.00
2018-12-21T13:35:01.714Z,1.00
2018-12-21T13:37:30.432Z,1.23
2018-12-21T13:39:58.522Z,1.10
2018-12-21T13:42:26.934Z,1.07
2018-12-21T13:44:55.112Z,1.00
2018-12-21T13:47:23.161Z,1.00
2018-12-21T13:49:53.094Z,0.90
2018-12-21T13:52:21.137Z,1.27
2018-12-21T13:54:49.230Z,1.10
2018-12-21T13:57:17.325Z,1.00
2018-12-21T13:59:45.390Z,1.10
2018-12-21T14:02:13.499Z,1.17
2018-12-21T14:04:41.566Z,1.37
2018-12-21T14:07:09.661Z,1.33
2018-12-21T14:09:37.733Z,0.90
2018-12-21T14:12:05.815Z,0.80
2018-12-21T14:14:35.542Z,1.00
2018-12-21T14:17:03.918Z,0.83
2018-12-21T14:19:32.030Z,0.97
2018-12-21T14:22:00.110Z,1.00
2018-12-21T14:24:28.200Z,0.83
2018-12-21T14:26:56.269Z,1.40
2018-12-21T14:29:24.368Z,1.00
2018-12-21T14:31:52.459Z,1.40
2018-12-21T14:34:20.543Z,1.20
2018-12-21T14:36:48.635Z,1.00
2018-12-21T14:39:17.008Z,1.20
2018-12-21T14:41:45.087Z,1.13
2018-12-21T14:44:13.932Z,1.30
2018-12-21T14:46:42.396Z,1.90
2018-12-21T14:49:10.491Z,2.90
2018-12-21T14:51:38.608Z,1.47
2018-12-21T14:54:06.696Z,2.17
2018-12-21T14:56:34.798Z,1.60
2018-12-21T14:59:02.907Z,1.87
2018-12-21T15:01:31.004Z,1.93
2018-12-21T15:03:59.153Z,2.70
2018-12-21T15:06:27.250Z,2.43
2018-12-21T15:08:55.334Z,2.03
2018-12-21T15:11:23.423Z,2.03
2018-12-21T15:13:51.496Z,2.20
2018-12-21T15:16:19.708Z,3.23
2018-12-21T15:18:47.802Z,2.30
2018-12-21T15:21:15.863Z,3.63
2018-12-21T15:23:43.958Z,2.50
2018-12-21T15:26:12.057Z,3.13
2018-12-21T15:28:40.159Z,3.03
2018-12-21T15:31:08.238Z,2.87
2018-12-21T15:33:36.336Z,3.03
2018-12-21T15:36:04.407Z,2.43
2018-12-21T15:38:32.542Z,3.70
2018-12-21T15:41:00.628Z,2.97
2018-12-21T15:43:28.729Z,3.60
2018-12-21T15:45:56.805Z,2.90
2018-12-21T15:48:24.885Z,4.33
2018-12-21T15:50:52.979Z,3.93
2018-12-21T15:53:21.172Z,3.10
2018-12-21T15:55:54.780Z,3.93
2018-12-21T15:58:19.424Z,3.20
2018-12-21T16:00:47.545Z,2.73
2018-12-21T16:03:15.610Z,3.20
2018-12-21T16:05:43.705Z,3.40
2018-12-21T16:08:11.885Z,3.90
2018-12-21T16:10:40.014Z,4.40
2018-12-21T16:13:08.113Z,4.87
2018-12-21T16:15:36.288Z,4.13
2018-12-21T16:18:04.376Z,5.70
2018-12-21T16:20:32.475Z,5.20
2018-12-21T16:23:00.594Z,5.37
2018-12-21T16:25:28.666Z,5.40
2018-12-21T16:27:56.771Z,5.03
2018-12-21T16:30:24.867Z,5.50
2018-12-21T16:32:52.975Z,5.20
2018-12-21T16:35:21.056Z,4.83
2018-12-21T16:37:49.167Z,5.83
2018-12-21T16:40:17.250Z,4.33
2018-12-21T16:42:45.383Z,4.70
2018-12-21T16:45:13.526Z,4.37
2018-12-21T16:47:41.641Z,6.03
2018-12-21T16:50:10.438Z,5.50
2018-12-21T16:52:38.499Z,5.73
2018-12-21T16:55:07.683Z,6.03
2018-12-21T16:57:35.830Z,5.33
2018-12-21T17:00:08.465Z,6.90
2018-12-21T17:02:36.538Z,6.67
2018-12-21T17:05:05.911Z,6.27
2018-12-21T17:07:33.992Z,5.47
2018-12-21T17:10:02.179Z,5.90
2018-12-21T17:12:30.256Z,6.23
2018-12-21T17:14:58.362Z,5.73
2018-12-21T17:17:26.458Z,6.87
2018-12-21T17:19:54.610Z,6.90
2018-12-21T17:22:22.678Z,5.93
2018-12-21T17:24:50.778Z,6.30
2018-12-21T17:27:18.862Z,7.30
2018-12-21T17:29:46.993Z,6.83
2018-12-21T17:32:15.078Z,7.33
2018-12-21T17:34:43.179Z,6.70
2018-12-21T17:37:11.307Z,7.20
2018-12-21T17:39:39.373Z,5.80
2018-12-21T17:42:07.513Z,6.40
2018-12-21T17:44:35.573Z,6.80
2018-12-21T17:47:03.755Z,6.03
2018-12-21T17:49:31.814Z,4.90
2018-12-21T17:52:01.565Z,4.40
2018-12-21T17:54:29.991Z,4.73
2018-12-21T17:56:58.162Z,2.83
2018-12-21T17:59:26.233Z,4.13
2018-12-21T18:01:54.325Z,4.37
2018-12-21T18:04:22.665Z,5.77
2018-12-21T18:06:50.948Z,4.73
2018-12-21T18:09:19.047Z,4.53
2018-12-21T18:11:47.156Z,4.63
2018-12-21T18:14:15.238Z,4.93
2018-12-21T18:16:43.347Z,4.83
2018-12-21T18:19:28.228Z,3.83
2018-12-21T18:21:58.719Z,4.40
2018-12-21T18:24:26.919Z,4.77
2018-12-21T18:26:55.013Z,4.37
2018-12-21T18:29:23.115Z,5.37
2018-12-21T18:31:51.595Z,5.47
2018-12-21T18:34:23.701Z,4.67
2018-12-21T18:36:51.806Z,5.80
2018-12-21T18:39:19.931Z,6.10
2018-12-21T18:41:48.177Z,5.37
2018-12-21T18:44:16.455Z,5.20
2018-12-21T18:46:44.631Z,5.07
2018-12-21T18:49:12.714Z,5.20
2018-12-21T18:51:40.806Z,5.17
2018-12-21T18:54:09.236Z,5.70
2018-12-21T18:56:47.218Z,5.90
2018-12-21T18:59:11.331Z,5.27
2018-12-21T19:01:39.441Z,5.10
2018-12-21T19:04:07.520Z,6.87
2018-12-21T19:06:35.644Z,5.90
2018-12-21T19:09:05.083Z,6.70
2018-12-21T19:11:33.211Z,6.23
2018-12-21T19:14:01.284Z,5.17
2018-12-21T19:16:29.406Z,4.80
2018-12-21T19:18:57.534Z,6.93
2018-12-21T19:21:25.630Z,6.90
2018-12-21T19:23:53.742Z,5.90
2018-12-21T19:26:21.798Z,5.50
2018-12-21T19:28:49.926Z,6.23
2018-12-21T19:31:18.596Z,5.87
2018-12-21T19:33:46.713Z,5.27
2018-12-21T19:36:14.869Z,5.50
2018-12-21T19:38:42.969Z,7.77
2018-12-21T19:41:11.952Z,5.13
2018-12-21T19:43:40.182Z,6.40
2018-12-21T19:46:08.260Z,4.40
2018-12-21T19:48:36.876Z,6.40
2018-12-21T19:51:04.970Z,5.97
2018-12-21T19:53:33.028Z,6.40
2018-12-21T19:56:04.804Z,5.33
2018-12-21T19:58:32.979Z,6.10
2018-12-21T20:01:01.054Z,7.03
2018-12-21T20:03:29.156Z,5.90
2018-12-21T20:05:57.272Z,6.13
2018-12-21T20:08:27.236Z,5.80
2018-12-21T20:10:55.447Z,5.43
2018-12-21T20:13:23.706Z,5.70
2018-12-21T20:15:51.834Z,6.33
2018-12-21T20:18:20.001Z,5.57
2018-12-21T20:20:48.083Z,7.10
2018-12-21T20:23:16.200Z,6.43
2018-12-21T20:25:44.303Z,7.50
2018-12-21T20:28:12.523Z,5.83
2018-12-21T20:30:40.607Z,7.30
2018-12-21T20:33:08.703Z,6.97
2018-12-21T20:35:36.913Z,7.27
2018-12-21T20:38:05.059Z,5.93
2018-12-21T20:40:33.155Z,6.57
2018-12-21T20:43:01.225Z,5.30
2018-12-21T20:45:29.349Z,5.97
2018-12-21T20:47:57.439Z,6.47
2018-12-21T20:50:25.522Z,5.47
2018-12-21T20:52:53.627Z,6.80
2018-12-21T20:55:21.799Z,6.20
2018-12-21T20:57:50.175Z,6.33
2018-12-21T21:00:18.272Z,5.27
2018-12-21T21:02:46.375Z,6.07
2018-12-21T21:05:14.478Z,5.97
2018-12-21T21:07:42.561Z,5.80
2018-12-21T21:10:11.663Z,6.27
2018-12-21T21:12:40.518Z,6.20
2018-12-21T21:15:11.038Z,7.07
2018-12-21T21:17:39.091Z,5.97
2018-12-21T21:20:12.775Z,6.57
2018-12-21T21:22:41.329Z,7.20
2018-12-21T21:25:09.481Z,6.90
2018-12-21T21:27:37.617Z,6.27
2018-12-21T21:30:15.527Z,6.30
2018-12-21T21:32:43.712Z,5.53
2018-12-21T21:35:11.804Z,7.50
2018-12-21T21:37:40.022Z,6.43
2018-12-21T21:40:11.976Z,7.00
2018-12-21T21:42:40.079Z,6.87
2018-12-21T21:45:09.655Z,6.83
2018-12-21T21:47:37.726Z,6.30
2018-12-21T21:50:08.751Z,6.57
2018-12-21T21:52:36.831Z,7.53
2018-12-21T21:55:05.361Z,7.37
2018-12-21T21:57:39.174Z,5.83
2018-12-21T22:00:05.786Z,7.50
2018-12-21T22:02:33.899Z,6.10
2018-12-21T22:05:02.010Z,8.00
2018-12-21T22:07:30.102Z,7.40
2018-12-21T22:09:59.114Z,7.67
2018-12-21T22:12:27.224Z,7.97
2018-12-21T22:14:55.303Z,8.60
2018-12-21T22:17:23.403Z,8.30
2018-12-21T22:19:51.488Z,7.60
2018-12-21T22:22:19.695Z,8.60
2018-12-21T22:24:47.777Z,9.40
2018-12-21T22:27:15.876Z,7.67
2018-12-21T22:29:43.950Z,8.90
2018-12-21T22:32:12.062Z,8.50
2018-12-21T22:34:40.187Z,9.43
2018-12-21T22:37:08.236Z,8.87
2018-12-21T22:39:36.487Z,7.67
2018-12-21T22:42:04.575Z,9.30
2018-12-21T22:44:32.652Z,8.43
2018-12-21T22:47:00.751Z,9.60
2018-12-21T23:06:51.991Z,9.07
2018-12-21T23:11:55.565Z,9.43
2018-12-21T23:14:23.647Z,8.17
2018-12-21T23:16:51.750Z,8.93
2018-12-21T23:19:19.839Z,8.87
2018-12-21T23:21:47.917Z,8.80
2018-12-21T23:24:17.536Z,8.83
2018-12-21T23:26:45.888Z,9.60
2018-12-21T23:29:13.949Z,9.83
2018-12-21T23:31:42.103Z,9.30
2018-12-21T23:34:10.395Z,9.40
2018-12-21T23:36:38.474Z,10.40
2018-12-21T23:39:06.650Z,10.57
2018-12-21T23:41:34.737Z,10.03
2018-12-21T23:44:02.813Z,9.20
2018-12-21T23:46:30.926Z,9.50
2018-12-21T23:48:59.014Z,10.87
2018-12-21T23:51:27.090Z,10.67
2018-12-21T23:53:55.177Z,10.70
2018-12-21T23:56:23.245Z,9.57
2018-12-21T23:58:51.355Z,10.80
